Cope, South Carolina
Current Conditions -  °F | °C
As of 8:53 AM on Monday 26 Jan 2015 (Local Time) from KOGB Reporting Station
Clear Clear  
Wind Chill: 41°   Ceiling: Unl
Heat Index: 46°   Visibility: 10mi
Dew Point: 40°   Wind: 10mph
Humidity: 79%   Direction: 260°W
Pressure: 29.7"   Gusts: NA
Location:  33.38°N, 81.01°W
Report Text: KOGB 261353Z AUTO 26009KT 10SM CLR 08/04 A2970 RMK AO2 SLP056 T00780044
Loading
Personal Weather Stations






























Interactive Weather Map New forecast layout! Learn more

10-Day Weather Forecast

Advertisements
Track Severe Weather on mobile